createdAt,value
2017-09-11T00:02:14.552Z,12.70
2017-09-11T00:04:42.038Z,12.80
2017-09-11T00:07:09.543Z,12.80
2017-09-11T00:09:37.786Z,12.80
2017-09-11T00:12:06.230Z,12.70
2017-09-11T00:14:34.471Z,12.80
2017-09-11T00:17:02.038Z,12.70
2017-09-11T00:19:30.295Z,12.70
2017-09-11T00:21:58.541Z,12.80
2017-09-11T00:24:26.041Z,12.70
2017-09-11T00:26:54.266Z,12.70
2017-09-11T00:29:21.770Z,12.70
2017-09-11T00:31:50.030Z,12.50
2017-09-11T00:34:17.533Z,12.80
2017-09-11T00:36:45.051Z,12.80
2017-09-11T00:39:12.539Z,12.80
2017-09-11T00:41:40.024Z,12.80
2017-09-11T00:44:08.280Z,12.70
2017-09-11T00:46:36.521Z,12.80
2017-09-11T00:49:04.028Z,12.60
2017-09-11T00:51:32.286Z,12.60
2017-09-11T00:54:00.519Z,12.70
2017-09-11T00:56:28.768Z,12.60
2017-09-11T00:58:56.249Z,12.60
2017-09-11T01:01:23.792Z,12.60
2017-09-11T01:03:51.327Z,12.70
2017-09-11T01:06:18.835Z,12.50
2017-09-11T01:08:46.315Z,12.50
2017-09-11T01:11:13.824Z,12.50
2017-09-11T01:13:41.393Z,12.50
2017-09-11T01:16:08.878Z,12.60
2017-09-11T01:18:37.227Z,12.50
2017-09-11T01:21:04.714Z,12.50
2017-09-11T01:23:32.194Z,12.60
2017-09-11T01:25:59.697Z,12.60
2017-09-11T01:28:27.946Z,12.60
2017-09-11T01:30:55.426Z,12.60
2017-09-11T01:33:22.925Z,12.60
2017-09-11T01:35:51.175Z,12.60
2017-09-11T01:38:18.657Z,12.60
2017-09-11T01:40:49.014Z,12.60
2017-09-11T01:43:28.000Z,12.60
2017-09-11T01:45:55.515Z,12.60
2017-09-11T01:48:23.107Z,12.60
2017-09-11T01:50:50.593Z,12.50
2017-09-11T01:53:18.121Z,12.50
2017-09-11T01:55:45.601Z,12.50
2017-09-11T01:58:13.877Z,12.50
2017-09-11T02:00:42.113Z,12.50
2017-09-11T02:03:09.581Z,12.50
2017-09-11T02:05:37.837Z,12.30
2017-09-11T02:08:06.258Z,12.50
2017-09-11T02:10:33.762Z,12.50
2017-09-11T02:13:01.228Z,12.60
2017-09-11T02:15:35.509Z,12.60
2017-09-11T02:18:03.124Z,12.50
2017-09-11T02:23:14.093Z,12.50
2017-09-11T02:25:42.339Z,12.50
2017-09-11T02:28:09.825Z,12.50
2017-09-11T02:30:37.322Z,12.50
2017-09-11T02:33:04.798Z,12.40
2017-09-11T02:35:33.070Z,12.40
2017-09-11T02:38:02.053Z,12.40
2017-09-11T02:40:29.524Z,12.40
2017-09-11T02:42:59.900Z,12.40
2017-09-11T02:48:36.444Z,12.30
2017-09-11T02:51:04.731Z,12.30
2017-09-11T02:53:38.138Z,12.30
2017-09-11T02:56:11.267Z,12.40
2017-09-11T02:58:46.376Z,12.30
2017-09-11T03:01:17.471Z,12.30
2017-09-11T03:04:01.498Z,12.30
2017-09-11T03:09:14.918Z,12.30
2017-09-11T03:11:42.387Z,12.30
2017-09-11T03:14:09.847Z,12.20
2017-09-11T03:16:37.435Z,12.20
2017-09-11T03:19:04.897Z,12.20
2017-09-11T03:21:32.389Z,12.20
2017-09-11T03:24:02.575Z,12.20
2017-09-11T03:26:30.806Z,12.20
2017-09-11T03:28:58.298Z,12.20
2017-09-11T03:31:25.776Z,12.20
2017-09-11T03:33:57.075Z,12.20
2017-09-11T03:36:24.604Z,12.20
2017-09-11T03:38:52.109Z,12.20
2017-09-11T03:41:19.578Z,12.20
2017-09-11T03:43:47.053Z,12.20
2017-09-11T03:46:14.581Z,12.20
2017-09-11T03:48:45.763Z,12.10
2017-09-11T03:51:15.163Z,12.10
2017-09-11T03:53:42.618Z,12.10
2017-09-11T03:56:11.888Z,12.10
2017-09-11T03:58:40.356Z,12.10
2017-09-11T04:01:07.879Z,12.10
2017-09-11T04:03:39.096Z,12.10
2017-09-11T04:06:06.739Z,12.10
2017-09-11T04:08:35.168Z,12.10
2017-09-11T04:11:02.705Z,12.10
2017-09-11T04:13:30.268Z,12.10
2017-09-11T04:15:58.683Z,12.10
2017-09-11T04:18:26.159Z,12.10
2017-09-11T04:20:53.633Z,12.00
2017-09-11T04:23:21.170Z,12.00
2017-09-11T04:25:49.577Z,12.00
2017-09-11T04:28:17.080Z,12.00
2017-09-11T04:30:44.619Z,12.10
2017-09-11T04:33:12.087Z,12.10
2017-09-11T04:35:39.545Z,12.10
2017-09-11T04:38:07.011Z,12.10
2017-09-11T04:40:34.631Z,12.10
2017-09-11T04:43:02.099Z,12.10
2017-09-11T04:45:29.642Z,12.10
2017-09-11T04:47:57.123Z,12.10
2017-09-11T04:50:25.337Z,12.20
2017-09-11T04:52:52.798Z,12.10
2017-09-11T04:55:20.281Z,12.20
2017-09-11T04:57:47.750Z,12.20
2017-09-11T05:00:15.207Z,12.30
2017-09-11T05:02:42.728Z,12.30
2017-09-11T05:05:10.996Z,12.30
2017-09-11T05:07:38.447Z,12.30
2017-09-11T05:10:06.062Z,12.40
2017-09-11T05:12:33.935Z,12.40
2017-09-11T05:15:02.167Z,12.50
2017-09-11T05:17:29.625Z,12.50
2017-09-11T05:19:57.100Z,12.50
2017-09-11T05:22:24.620Z,12.60
2017-09-11T05:24:52.854Z,12.70
2017-09-11T05:27:20.336Z,12.70
2017-09-11T05:29:47.799Z,12.70
2017-09-11T05:32:15.266Z,12.80
2017-09-11T05:34:42.715Z,12.80
2017-09-11T05:37:10.159Z,12.90
2017-09-11T05:39:38.423Z,12.90
2017-09-11T05:42:06.011Z,12.90
2017-09-11T05:44:34.355Z,13.00
2017-09-11T05:47:01.816Z,13.00
2017-09-11T05:49:29.295Z,13.10
2017-09-11T05:51:56.745Z,13.10
2017-09-11T05:54:24.227Z,13.20
2017-09-11T05:56:51.723Z,13.30
2017-09-11T05:59:19.272Z,13.40
2017-09-11T06:01:46.796Z,13.40
2017-09-11T06:04:15.082Z,13.60
2017-09-11T06:06:42.591Z,13.60
2017-09-11T06:09:10.095Z,13.80
2017-09-11T06:11:38.334Z,14.20
2017-09-11T06:14:05.850Z,14.10
2017-09-11T06:16:33.335Z,14.40
2017-09-11T06:19:00.907Z,14.60
2017-09-11T06:21:28.386Z,14.80
2017-09-11T06:23:55.860Z,15.00
2017-09-11T06:26:23.414Z,15.20
2017-09-11T06:28:50.914Z,15.40
2017-09-11T06:31:19.153Z,15.70
2017-09-11T06:33:46.614Z,15.70
2017-09-11T06:36:14.099Z,15.90
2017-09-11T06:38:41.632Z,16.10
2017-09-11T06:41:09.112Z,16.00
2017-09-11T06:43:36.634Z,16.10
2017-09-11T06:46:04.354Z,16.20
2017-09-11T06:48:31.805Z,16.30
2017-09-11T06:51:00.059Z,16.40
2017-09-11T06:53:27.540Z,16.40
2017-09-11T06:55:55.021Z,16.50
2017-09-11T06:58:22.529Z,16.70
2017-09-11T07:00:50.027Z,16.90
2017-09-11T07:03:17.516Z,17.10
2017-09-11T07:05:44.993Z,17.30
2017-09-11T07:08:12.466Z,17.30
2017-09-11T07:10:39.951Z,17.40
2017-09-11T07:13:20.075Z,17.30
2017-09-11T07:15:47.583Z,17.30
2017-09-11T07:18:15.845Z,17.10
2017-09-11T07:20:43.311Z,17.10
2017-09-11T07:23:10.859Z,17.10
2017-09-11T07:25:38.361Z,17.10
2017-09-11T07:28:05.926Z,17.20
2017-09-11T07:30:33.428Z,17.10
2017-09-11T07:33:01.676Z,17.10
2017-09-11T07:35:29.170Z,17.10
2017-09-11T07:37:57.642Z,17.20
2017-09-11T07:40:25.135Z,17.20
2017-09-11T07:42:52.630Z,17.20
2017-09-11T07:45:20.863Z,17.40
2017-09-11T07:47:48.339Z,17.30
2017-09-11T07:50:15.895Z,17.50
2017-09-11T07:52:43.399Z,17.70
2017-09-11T07:55:10.874Z,17.90
2017-09-11T07:57:39.114Z,18.10
2017-09-11T08:00:06.664Z,18.10
2017-09-11T08:02:34.110Z,18.20
2017-09-11T08:05:02.342Z,18.30
2017-09-11T08:07:29.798Z,18.30
2017-09-11T08:09:57.307Z,18.40
2017-09-11T08:12:24.897Z,18.40
2017-09-11T08:14:52.426Z,18.30
2017-09-11T08:17:20.831Z,18.20
2017-09-11T08:19:48.299Z,18.30
2017-09-11T08:22:15.778Z,18.30
2017-09-11T08:24:43.233Z,18.40
2017-09-11T08:27:10.754Z,18.40
2017-09-11T08:29:38.272Z,18.50
2017-09-11T08:32:05.815Z,18.50
2017-09-11T08:34:33.284Z,18.60
2017-09-11T08:37:00.739Z,18.60
2017-09-11T08:39:28.957Z,18.40
2017-09-11T08:41:57.213Z,18.30
2017-09-11T08:44:25.466Z,18.20
2017-09-11T08:46:52.923Z,18.20
2017-09-11T08:49:20.516Z,18.20
2017-09-11T08:51:48.018Z,18.20
2017-09-11T08:54:16.270Z,18.20
2017-09-11T08:56:43.751Z,18.10
2017-09-11T08:59:11.240Z,18.20
2017-09-11T09:01:39.486Z,18.20
2017-09-11T09:04:06.969Z,18.10
2017-09-11T09:06:34.439Z,18.10
2017-09-11T09:09:01.917Z,17.90
2017-09-11T09:11:29.375Z,17.90
2017-09-11T09:13:56.860Z,17.90
2017-09-11T09:16:24.382Z,18.00
2017-09-11T09:18:51.872Z,18.10
2017-09-11T09:21:19.357Z,18.20
2017-09-11T09:23:46.848Z,18.30
2017-09-11T09:26:14.346Z,18.40
2017-09-11T09:28:41.969Z,18.60
2017-09-11T09:31:09.432Z,18.80
2017-09-11T09:33:36.936Z,19.10
2017-09-11T09:36:05.197Z,19.50
2017-09-11T09:38:32.652Z,19.50
2017-09-11T09:41:00.210Z,19.60
2017-09-11T09:43:27.704Z,19.70
2017-09-11T09:45:55.211Z,19.70
2017-09-11T09:48:23.505Z,19.80
2017-09-11T09:50:51.755Z,19.90
2017-09-11T09:53:19.256Z,19.90
2017-09-11T09:55:48.455Z,20.00
2017-09-11T09:58:17.181Z,20.00
2017-09-11T10:00:44.694Z,20.00
2017-09-11T10:03:12.170Z,20.10
2017-09-11T10:05:39.665Z,20.10
2017-09-11T10:08:07.388Z,20.20
2017-09-11T10:10:34.877Z,20.30
2017-09-11T10:13:02.411Z,20.40
2017-09-11T10:15:30.677Z,20.20
2017-09-11T10:17:58.334Z,20.20
2017-09-11T10:20:25.999Z,20.20
2017-09-11T10:22:53.515Z,20.20
2017-09-11T10:25:21.802Z,20.40
2017-09-11T10:27:50.030Z,20.50
2017-09-11T10:30:17.518Z,20.50
2017-09-11T10:32:45.101Z,20.60
2017-09-11T10:35:12.592Z,20.80
2017-09-11T10:37:41.033Z,21.40
2017-09-11T10:40:08.504Z,22.60
2017-09-11T10:42:36.143Z,24.50
2017-09-11T10:45:03.622Z,26.50
2017-09-11T10:50:07.927Z,28.90
2017-09-11T10:52:35.388Z,29.40
2017-09-11T10:55:03.734Z,30.10
2017-09-11T10:57:31.227Z,30.10
2017-09-11T10:59:58.718Z,29.80
2017-09-11T11:02:26.239Z,29.50
2017-09-11T11:04:53.754Z,29.50
2017-09-11T11:07:21.991Z,28.30
2017-09-11T11:09:49.482Z,28.20
2017-09-11T11:12:16.961Z,27.80
2017-09-11T11:14:44.449Z,27.20
2017-09-11T11:17:11.972Z,26.40
2017-09-11T11:19:40.228Z,25.70
2017-09-11T11:22:11.076Z,25.80
2017-09-11T11:24:40.638Z,25.10
2017-09-11T11:27:08.901Z,24.70
2017-09-11T11:29:36.392Z,24.70
2017-09-11T11:32:04.068Z,24.30
2017-09-11T11:34:31.631Z,24.10
2017-09-11T11:36:59.896Z,23.60
2017-09-11T11:39:27.374Z,23.60
2017-09-11T11:41:54.947Z,23.50
2017-09-11T11:44:22.521Z,23.20
2017-09-11T11:46:50.037Z,23.00
2017-09-11T11:49:17.530Z,23.00
2017-09-11T11:51:45.024Z,22.90
2017-09-11T11:54:12.660Z,22.70
2017-09-11T11:56:40.907Z,22.60
2017-09-11T11:59:08.413Z,22.60
2017-09-11T12:01:38.419Z,22.80
2017-09-11T12:04:06.202Z,22.80
2017-09-11T12:06:34.446Z,22.80
2017-09-11T12:09:02.986Z,22.80
2017-09-11T12:11:30.485Z,22.80
2017-09-11T12:13:58.058Z,22.90
2017-09-11T12:16:26.490Z,23.10
2017-09-11T12:18:54.001Z,23.00
2017-09-11T12:21:21.546Z,22.70
2017-09-11T12:23:49.038Z,22.50
2017-09-11T12:26:16.585Z,22.30
2017-09-11T12:28:44.107Z,22.30
2017-09-11T12:31:11.716Z,22.40
2017-09-11T12:33:39.989Z,22.20
2017-09-11T12:36:07.524Z,22.20
2017-09-11T12:38:35.025Z,22.10
2017-09-11T12:41:02.785Z,22.00
2017-09-11T12:43:30.303Z,21.80
2017-09-11T12:45:57.893Z,21.70
2017-09-11T12:48:25.393Z,21.50
2017-09-11T12:50:53.687Z,21.50
2017-09-11T12:53:22.065Z,21.40
2017-09-11T12:55:49.547Z,21.40
2017-09-11T12:58:17.189Z,21.50
2017-09-11T13:00:44.714Z,21.50
2017-09-11T13:03:12.235Z,21.50
2017-09-11T13:05:39.733Z,21.50
2017-09-11T13:08:08.928Z,21.40
2017-09-11T13:10:36.450Z,21.40
2017-09-11T13:13:03.937Z,21.40
2017-09-11T13:15:31.447Z,21.40
2017-09-11T13:17:58.992Z,21.40
2017-09-11T13:20:26.609Z,21.50
2017-09-11T13:22:54.168Z,21.50
2017-09-11T13:25:21.631Z,21.60
2017-09-11T13:27:49.915Z,21.70
2017-09-11T13:30:17.414Z,21.70
2017-09-11T13:32:45.675Z,21.70
2017-09-11T13:35:13.998Z,21.60
2017-09-11T13:37:41.655Z,21.60
2017-09-11T13:40:09.173Z,21.40
2017-09-11T13:42:36.652Z,21.50
2017-09-11T13:45:04.137Z,21.60
2017-09-11T13:47:31.773Z,21.60
2017-09-11T13:50:00.512Z,21.60
2017-09-11T13:52:28.065Z,21.60
2017-09-11T13:54:55.763Z,21.40
2017-09-11T13:57:24.228Z,21.40
2017-09-11T13:59:51.871Z,21.40
2017-09-11T14:02:20.131Z,21.50
2017-09-11T14:04:48.400Z,21.40
2017-09-11T14:07:15.894Z,21.20
2017-09-11T14:09:43.445Z,21.40
2017-09-11T14:12:10.932Z,21.40
2017-09-11T14:14:38.414Z,21.40
2017-09-11T14:17:06.000Z,21.40
2017-09-11T14:19:33.647Z,21.50
2017-09-11T14:22:02.114Z,21.50
2017-09-11T14:24:39.089Z,21.60
2017-09-11T14:27:06.913Z,21.60
2017-09-11T14:29:35.220Z,21.50
2017-09-11T14:32:05.678Z,21.50
2017-09-11T14:34:38.888Z,21.30
2017-09-11T14:37:07.590Z,21.30
2017-09-11T14:39:35.112Z,21.10
2017-09-11T14:42:07.229Z,20.90
2017-09-11T14:44:35.499Z,20.90
2017-09-11T14:47:02.979Z,20.90
2017-09-11T14:49:30.476Z,20.90
2017-09-11T14:51:57.980Z,20.90
2017-09-11T14:54:26.326Z,20.90
2017-09-11T14:56:53.862Z,20.90
2017-09-11T14:59:21.460Z,20.90
2017-09-11T15:01:48.952Z,20.90
2017-09-11T15:04:16.492Z,20.90
2017-09-11T15:06:43.992Z,21.00
2017-09-11T15:09:11.501Z,21.00
2017-09-11T15:11:38.984Z,21.00
2017-09-11T15:14:06.502Z,21.00
2017-09-11T15:16:34.059Z,21.10
2017-09-11T15:19:01.548Z,21.10
2017-09-11T15:21:29.070Z,21.10
2017-09-11T15:23:56.595Z,21.10
2017-09-11T15:26:24.232Z,21.00
2017-09-11T15:28:51.785Z,20.90
2017-09-11T15:31:19.272Z,20.70
2017-09-11T15:33:46.776Z,20.60
2017-09-11T15:36:14.367Z,20.50
2017-09-11T15:38:42.646Z,20.20
2017-09-11T15:41:10.136Z,20.20
2017-09-11T15:43:37.678Z,20.10
2017-09-11T15:46:05.987Z,19.80
2017-09-11T15:48:33.632Z,19.80
2017-09-11T15:51:01.244Z,19.70
2017-09-11T15:53:29.735Z,19.70
2017-09-11T15:55:58.001Z,19.60
2017-09-11T15:58:25.539Z,19.50
2017-09-11T16:00:53.045Z,19.50
2017-09-11T16:03:20.553Z,19.50
2017-09-11T16:05:48.016Z,19.40
2017-09-11T16:08:15.509Z,19.30
2017-09-11T16:10:43.052Z,19.30
2017-09-11T16:13:10.722Z,19.20
2017-09-11T16:15:39.188Z,19.30
2017-09-11T16:18:07.044Z,19.30
2017-09-11T16:20:34.546Z,19.00
2017-09-11T16:23:02.091Z,19.20
2017-09-11T16:25:29.582Z,19.30
2017-09-11T16:27:57.081Z,19.30
2017-09-11T16:30:25.167Z,19.30
2017-09-11T16:32:52.667Z,19.30
2017-09-11T16:35:20.967Z,19.30
2017-09-11T16:37:49.222Z,19.20
2017-09-11T16:40:16.701Z,19.20
2017-09-11T16:42:44.223Z,19.20
2017-09-11T16:45:11.743Z,19.10
2017-09-11T16:47:40.017Z,19.10
2017-09-11T16:50:09.783Z,19.00
2017-09-11T16:52:37.265Z,19.00
2017-09-11T16:55:04.763Z,18.90
2017-09-11T16:57:32.249Z,18.80
2017-09-11T16:59:59.858Z,18.80
2017-09-11T17:02:28.148Z,18.70
2017-09-11T17:04:55.634Z,18.70
2017-09-11T17:07:23.140Z,18.60
2017-09-11T17:09:50.766Z,18.50
2017-09-11T17:12:18.437Z,18.30
2017-09-11T17:14:45.931Z,18.30
2017-09-11T17:17:14.177Z,18.10
2017-09-11T17:19:41.655Z,18.10
2017-09-11T17:22:09.126Z,17.90
2017-09-11T17:24:37.434Z,18.10
2017-09-11T17:27:04.921Z,18.10
2017-09-11T17:29:32.409Z,18.00
2017-09-11T17:32:00.710Z,17.80
2017-09-11T17:34:29.134Z,17.80
2017-09-11T17:36:56.649Z,17.70
2017-09-11T17:39:24.186Z,17.70
2017-09-11T17:41:51.796Z,17.70
2017-09-11T17:44:19.273Z,17.60
2017-09-11T17:46:46.953Z,17.50
2017-09-11T17:49:14.450Z,17.50
2017-09-11T17:51:41.944Z,17.50
2017-09-11T17:54:09.444Z,17.50
2017-09-11T17:56:37.722Z,17.50
2017-09-11T17:59:05.240Z,17.40
2017-09-11T18:01:33.511Z,17.50
2017-09-11T18:04:01.237Z,17.70
2017-09-11T18:06:28.721Z,17.50
2017-09-11T18:08:56.235Z,17.50
2017-09-11T18:11:23.854Z,17.50
2017-09-11T18:13:51.490Z,17.40
2017-09-11T18:16:19.124Z,17.50
2017-09-11T18:18:46.631Z,17.40
2017-09-11T18:21:14.893Z,17.40
2017-09-11T18:23:42.520Z,17.40
2017-09-11T18:26:10.799Z,17.30
2017-09-11T18:28:38.282Z,17.30
2017-09-11T18:31:05.950Z,17.30
2017-09-11T18:33:33.568Z,17.20
2017-09-11T18:36:01.036Z,17.20
2017-09-11T18:38:28.591Z,17.20
2017-09-11T18:40:56.272Z,17.20
2017-09-11T18:43:23.834Z,17.10
2017-09-11T18:45:51.418Z,17.10
2017-09-11T18:48:19.673Z,17.10
2017-09-11T18:50:47.352Z,17.10
2017-09-11T18:53:14.835Z,17.10
2017-09-11T18:55:42.331Z,17.10
2017-09-11T18:58:10.857Z,17.00
2017-09-11T19:00:38.361Z,16.70
2017-09-11T19:03:05.958Z,17.00
2017-09-11T19:05:33.545Z,16.90
2017-09-11T19:08:01.043Z,16.90
2017-09-11T19:10:28.561Z,16.80
2017-09-11T19:12:56.879Z,16.90
2017-09-11T19:15:24.410Z,16.80
2017-09-11T19:17:51.940Z,16.80
2017-09-11T19:20:19.451Z,16.70
2017-09-11T19:22:47.723Z,16.60
2017-09-11T19:25:15.193Z,16.70
2017-09-11T19:27:42.700Z,16.60
2017-09-11T19:30:10.185Z,16.60
2017-09-11T19:32:37.673Z,16.60
2017-09-11T19:35:06.122Z,16.50
2017-09-11T19:37:34.392Z,16.60
2017-09-11T19:40:02.639Z,16.60
2017-09-11T19:42:30.582Z,16.60
2017-09-11T19:44:59.438Z,16.60
2017-09-11T19:47:26.926Z,16.60
2017-09-11T19:49:54.584Z,16.50
2017-09-11T19:52:22.091Z,16.60
2017-09-11T19:54:50.351Z,16.60
2017-09-11T19:57:17.853Z,16.50
2017-09-11T19:59:45.470Z,16.50
2017-09-11T20:02:12.981Z,16.50
2017-09-11T20:04:40.468Z,16.50
2017-09-11T20:07:08.041Z,16.60
2017-09-11T20:09:36.307Z,16.60
2017-09-11T20:12:04.542Z,16.60
2017-09-11T20:14:32.478Z,16.60
2017-09-11T20:16:59.943Z,16.60
2017-09-11T20:19:27.439Z,16.60
2017-09-11T20:21:54.964Z,16.60
2017-09-11T20:24:23.235Z,16.60
2017-09-11T20:26:50.743Z,16.70
2017-09-11T20:29:18.253Z,16.50
2017-09-11T20:31:45.738Z,16.50
2017-09-11T20:34:13.304Z,16.50
2017-09-11T20:36:40.798Z,16.50
2017-09-11T20:39:08.347Z,16.60
2017-09-11T20:41:35.870Z,16.50
2017-09-11T20:44:03.348Z,16.50
2017-09-11T20:46:30.865Z,16.50
2017-09-11T20:48:59.090Z,16.60
2017-09-11T20:51:31.074Z,16.50
2017-09-11T20:53:58.640Z,16.50
2017-09-11T20:56:26.912Z,16.60
2017-09-11T20:58:54.404Z,16.60
2017-09-11T21:01:21.920Z,16.50
2017-09-11T21:03:49.418Z,16.60
2017-09-11T21:06:17.684Z,16.50
2017-09-11T21:08:45.199Z,16.50
2017-09-11T21:11:14.518Z,16.50
2017-09-11T21:13:42.060Z,16.50
2017-09-11T21:16:09.564Z,16.40
2017-09-11T21:18:37.090Z,16.40
2017-09-11T21:24:24.840Z,16.30
2017-09-11T21:26:52.341Z,16.30
2017-09-11T21:29:19.866Z,16.30
2017-09-11T21:31:47.500Z,16.30
2017-09-11T21:34:14.995Z,16.20
2017-09-11T21:36:42.463Z,16.30
2017-09-11T21:39:10.707Z,16.20
2017-09-11T21:41:38.250Z,16.20
2017-09-11T21:44:05.832Z,16.20
2017-09-11T21:46:33.318Z,16.20
2017-09-11T21:49:01.575Z,16.10
2017-09-11T21:51:29.084Z,15.90
2017-09-11T21:53:56.551Z,16.10
2017-09-11T21:56:24.157Z,16.00
2017-09-11T21:58:52.435Z,16.00
2017-09-11T22:01:19.903Z,16.00
2017-09-11T22:03:48.180Z,16.00
2017-09-11T22:06:15.713Z,15.90
2017-09-11T22:08:43.199Z,16.00
2017-09-11T22:11:10.689Z,16.00
2017-09-11T22:13:38.956Z,15.80
2017-09-11T22:16:06.645Z,16.00
2017-09-11T22:18:34.165Z,15.80
2017-09-11T22:21:01.684Z,15.80
2017-09-11T22:23:29.245Z,15.80
2017-09-11T22:25:57.518Z,15.70
2017-09-11T22:28:25.026Z,15.70
2017-09-11T22:30:52.592Z,15.70
2017-09-11T22:33:20.093Z,15.70
2017-09-11T22:35:47.580Z,15.90
2017-09-11T22:38:15.072Z,15.70
2017-09-11T22:40:43.335Z,15.70
2017-09-11T22:43:11.610Z,15.70
2017-09-11T22:45:39.096Z,15.70
2017-09-11T22:48:06.698Z,15.70
2017-09-11T22:50:34.937Z,15.80
2017-09-11T22:53:03.170Z,15.80
2017-09-11T22:55:31.456Z,15.90
2017-09-11T22:57:59.711Z,15.80
2017-09-11T23:00:27.819Z,15.80
2017-09-11T23:02:55.321Z,15.80
2017-09-11T23:05:23.660Z,15.80
2017-09-11T23:07:51.196Z,15.80
2017-09-11T23:10:18.687Z,15.80
2017-09-11T23:12:46.160Z,15.70
2017-09-11T23:15:14.408Z,15.70
2017-09-11T23:17:42.639Z,15.70
2017-09-11T23:20:11.575Z,15.70
2017-09-11T23:22:39.824Z,15.60
2017-09-11T23:25:08.305Z,15.60
2017-09-11T23:27:35.785Z,15.60
2017-09-11T23:30:04.098Z,15.60
2017-09-11T23:32:32.411Z,15.60
2017-09-11T23:34:59.877Z,15.60
2017-09-11T23:37:27.378Z,15.60
2017-09-11T23:39:54.859Z,15.60
2017-09-11T23:42:22.353Z,15.60
2017-09-11T23:44:50.624Z,15.50
2017-09-11T23:47:18.097Z,15.50
2017-09-11T23:49:45.706Z,15.50
2017-09-11T23:52:13.972Z,15.40
2017-09-11T23:54:41.452Z,15.40
2017-09-11T23:57:09.060Z,15.40
2017-09-11T23:59:36.565Z,15.40
